EPWA/WAW METAR and TAF weather

Enter ICAO airport designator
Station Type Date Time Source
EPWA METAR 2020/03/31 22:00 UTC NOAA

EPWA 312200Z 27005KT CAVOK M02/M05 Q1024 NOSIG


Station Type Date Time Source
EPWA Decoded METAR 2020/03/31 22:00 UTC NOAA

Warszawa-Okecie, Poland (EPWA) 52-10N 020-58E 107M
Mar 31, 2020 - 06:00 PM EDT / 2020.03.31 2200 UTC
Wind: from the W (270 degrees) at 6 MPH (5 KT):0
Visibility: greater than 7 mile(s):0
Temperature: 28 F (-2 C)
Windchill: 21 F (-6 C):1
Dew Point: 23 F (-5 C)
Relative Humidity: 79%
Pressure (altimeter): 30.24 in. Hg (1024 hPa)
ob: EPWA 312200Z 27005KT CAVOK M02/M05 Q1024 NOSIG
cycle: 22

Station Type Date Time Source
EPWA TAF 2020/03/31 21:33 UTC NOAA

TAF EPWA 312030Z 3121/0121 30008KT CAVOK
TEMPO 0109/0116 27016G26KT

Example: see airport list